Terminal Aerodrome Forecast
Issued by NWS

Home | Current Version | Previous Version | Text Only | Print | Product List | Glossary On
Versions: 1 2 3 4 5 6 7 8 9 10 11 12 13 14 15 16 17
000
FTAK31 PANC 251131
TAFAAQ
TAF
PAAQ 251131Z 2512/2612 06006KT P6SM -SHRA SCT025 OVC050
      TEMPO 2512/2516 5SM RA BR BKN020 OVC035
     FM251600 06004KT P6SM -SHRA BKN025 OVC050
      TEMPO 2516/2520 5SM -SHRA BR BKN015 OVC030
     FM252300 14005KT P6SM -SHRA SCT020 OVC040
     FM260600 VRB03KT P6SM SCT040 OVC080=

USA.gov is the U.S. government's official web portal to all federal, state and local government web resources and services.